Time;durP1;ratioP1;P1;durP2;ratioP2;P2;SDS_P1;SDS_P2;PMS_P1;PMS_P2;Temp;Humidity;BMP_temperature;BMP_pressure;BME280_temperature;BME280_humidity;BME280_pressure;Samples;Min_cycle;Max_cycle;Signal;HPM_P1;HPM_P2
2022/06/04 00:00:40;;;;;;;22.33;10.27;;;9.90;99.90;;;;;;5075177;28;20127;-74
2022/06/04 00:03:06;;;;;;;22.42;11.07;;;9.80;99.90;;;;;;5075204;28;20052;-74
2022/06/04 00:05:39;;;;;;;17.63;10.65;;;9.90;99.90;;;;;;5074899;28;20468;-74
2022/06/04 00:08:06;;;;;;;24.63;11.55;;;9.80;99.90;;;;;;5074308;28;20519;-74
2022/06/04 00:16:05;;;;;;;20.77;11.38;;;9.80;99.90;;;;;;5074469;28;20504;-73
2022/06/04 00:18:31;;;;;;;27.05;10.35;;;9.70;99.90;;;;;;5074328;28;20080;-73
2022/06/04 00:20:57;;;;;;;33.25;11.18;;;9.70;99.90;;;;;;5074330;28;20546;-73
2022/06/04 00:23:23;;;;;;;20.98;10.48;;;9.70;99.90;;;;;;5074280;28;20102;-72
2022/06/04 00:25:52;;;;;;;17.30;10.20;;;9.70;99.90;;;;;;5074435;28;20048;-74
2022/06/04 00:28:20;;;;;;;25.20;11.43;;;9.70;99.90;;;;;;5072508;28;20048;-73
2022/06/04 00:30:47;;;;;;;20.75;10.55;;;9.70;99.90;;;;;;5074328;28;20041;-73
2022/06/04 00:33:13;;;;;;;19.95;12.70;;;9.70;99.90;;;;;;5074421;28;20435;-73
2022/06/04 00:35:40;;;;;;;20.75;12.60;;;9.70;99.90;;;;;;5073382;28;20045;-74
2022/06/04 00:38:07;;;;;;;27.67;12.50;;;9.60;99.90;;;;;;5073214;28;20094;-74
2022/06/04 00:40:49;;;;;;;31.10;12.70;;;9.90;99.90;;;;;;5073530;28;20154;-74
2022/06/04 00:43:16;;;;;;;25.30;13.27;;;9.60;99.90;;;;;;5073073;28;20049;-74
2022/06/04 00:46:19;;;;;;;22.42;10.82;;;9.60;99.90;;;;;;5073292;28;20037;-74
2022/06/04 00:48:45;;;;;;;17.15;10.55;;;9.50;99.90;;;;;;5073223;28;20052;-74
2022/06/04 00:51:11;;;;;;;27.48;12.02;;;9.50;99.90;;;;;;5073634;28;20597;-74
2022/06/04 00:53:37;;;;;;;27.63;12.90;;;9.60;99.90;;;;;;5073744;28;20044;-73
2022/06/04 00:56:16;;;;;;;19.67;12.25;;;9.50;99.90;;;;;;5073549;28;20113;-74
2022/06/04 00:58:53;;;;;;;25.70;11.85;;;9.60;99.90;;;;;;5073470;28;20063;-74
2022/06/04 01:01:26;;;;;;;33.00;12.82;;;9.50;99.90;;;;;;5073887;28;20048;-74
2022/06/04 01:04:03;;;;;;;24.70;12.60;;;9.50;99.90;;;;;;5073008;28;20040;-74
2022/06/04 01:06:50;;;;;;;27.05;12.55;;;9.60;99.90;;;;;;5073490;28;20040;-74
2022/06/04 01:09:41;;;;;;;30.15;12.77;;;9.50;99.90;;;;;;5073367;28;20055;-73
2022/06/04 01:12:45;;;;;;;26.50;13.15;;;9.50;99.90;;;;;;5073221;28;20545;-73
2022/06/04 01:15:29;;;;;;;22.67;13.80;;;9.50;99.90;;;;;;5073227;28;20045;-73
2022/06/04 01:18:16;;;;;;;25.15;13.00;;;9.60;99.90;;;;;;5073477;28;20048;-74
2022/06/04 01:20:44;;;;;;;28.23;14.32;;;9.50;99.90;;;;;;5073273;28;20150;-73
2022/06/04 01:23:41;;;;;;;25.67;11.55;;;9.60;99.90;;;;;;5072984;28;20044;-73
2022/06/04 01:26:23;;;;;;;25.90;13.43;;;9.60;99.90;;;;;;5073289;28;20044;-74
2022/06/04 01:28:57;;;;;;;23.77;12.77;;;9.50;99.90;;;;;;5073131;28;20048;-73
2022/06/04 01:31:31;;;;;;;29.80;13.43;;;9.50;99.90;;;;;;5072108;28;20416;-74
2022/06/04 01:34:00;;;;;;;27.13;12.40;;;9.50;99.90;;;;;;5072944;28;20120;-74
2022/06/04 01:36:48;;;;;;;23.00;13.38;;;9.50;99.90;;;;;;5072768;28;20040;-74
2022/06/04 01:42:23;;;;;;;23.50;13.07;;;9.50;99.90;;;;;;5072683;28;20484;-74
2022/06/04 01:44:51;;;;;;;26.65;13.82;;;9.40;99.90;;;;;;5072645;28;20117;-74
2022/06/04 01:47:19;;;;;;;30.15;14.48;;;9.50;99.90;;;;;;5072847;28;20047;-74
2022/06/04 01:49:51;;;;;;;29.08;13.98;;;9.40;99.90;;;;;;5072787;28;20045;-74
2022/06/04 01:52:31;;;;;;;27.88;13.98;;;9.30;99.90;;;;;;5072559;28;20106;-74
2022/06/04 01:55:12;;;;;;;25.40;14.07;;;9.30;99.90;;;;;;5072814;28;20047;-73
2022/06/04 01:57:55;;;;;;;29.65;13.43;;;9.40;99.90;;;;;;5072831;28;20454;-73
2022/06/04 02:00:27;;;;;;;24.17;14.38;;;9.40;99.90;;;;;;5072990;28;20064;-73
2022/06/04 02:03:20;;;;;;;27.38;14.52;;;9.30;99.90;;;;;;5072615;28;20133;-73
2022/06/04 02:05:52;;;;;;;34.08;15.60;;;9.20;99.90;;;;;;5072645;28;20051;-73
2022/06/04 02:08:28;;;;;;;28.67;14.88;;;9.20;99.90;;;;;;5072320;28;20412;-73
2022/06/04 02:10:55;;;;;;;;;;;9.10;99.90;;;;;;5071845;28;20036;-73
2022/06/04 02:13:21;;;;;;;;;;;9.10;99.90;;;;;;5072921;28;19974;-73
2022/06/04 02:16:08;;;;;;;32.53;14.40;;;9.20;99.90;;;;;;5075413;28;19920;-74
2022/06/04 02:18:34;;;;;;;;;;;9.10;99.90;;;;;;5077034;28;20045;-73
2022/06/04 02:21:01;;;;;;;41.72;15.60;;;9.00;99.90;;;;;;5076718;28;19927;-73
2022/06/04 02:23:29;;;;;;;33.45;15.85;;;9.00;99.90;;;;;;5076334;28;20036;-73
2022/06/04 02:25:56;;;;;;;34.55;16.58;;;9.00;99.90;;;;;;5076342;28;20041;-73
2022/06/04 02:28:21;;;;;;;35.15;15.75;;;8.90;99.90;;;;;;5076117;28;20124;-73
2022/06/04 02:31:05;;;;;;;31.58;15.80;;;8.80;99.90;;;;;;5076517;28;20154;-73
2022/06/04 02:33:57;;;;;;;32.28;18.05;;;8.80;99.90;;;;;;5076345;28;20033;-74
2022/06/04 02:36:27;;;;;;;36.45;15.70;;;8.70;99.90;;;;;;5076147;28;20084;-73
2022/06/04 02:39:12;;;;;;;27.17;16.55;;;8.70;99.90;;;;;;5076133;28;20044;-73
2022/06/04 02:41:52;;;;;;;36.00;16.25;;;8.60;99.90;;;;;;5076139;28;20098;-73
2022/06/04 02:44:31;;;;;;;33.13;16.00;;;8.50;99.90;;;;;;5075948;28;20040;-73
2022/06/04 02:47:15;;;;;;;41.55;16.15;;;8.60;99.90;;;;;;5076115;28;20049;-73
2022/06/04 02:49:56;;;;;;;38.67;17.25;;;8.70;99.90;;;;;;5076354;28;20502;-74
2022/06/04 02:52:23;;;;;;;35.95;17.15;;;8.60;99.90;;;;;;5075877;28;20060;-74
2022/06/04 02:54:57;;;;;;;39.13;17.27;;;8.60;99.90;;;;;;5075866;28;20111;-74
2022/06/04 02:57:25;;;;;;;35.78;16.58;;;8.60;99.90;;;;;;5075787;28;20040;-73
2022/06/04 02:59:52;;;;;;;32.80;16.17;;;8.60;99.90;;;;;;5075698;28;20072;-73
2022/06/04 03:02:21;;;;;;;38.67;16.20;;;8.60;99.90;;;;;;5075778;28;20044;-74
2022/06/04 03:04:50;;;;;;;38.33;16.42;;;8.60;99.90;;;;;;5075783;28;20032;-73
2022/06/04 03:07:18;;;;;;;28.52;14.52;;;8.60;99.90;;;;;;5075822;28;20041;-73
2022/06/04 03:09:44;;;;;;;33.25;14.52;;;8.60;99.90;;;;;;5075600;28;20044;-74
2022/06/04 03:12:14;;;;;;;30.30;14.63;;;8.80;99.90;;;;;;5075304;28;20109;-74
2022/06/04 03:14:40;;;;;;;28.73;14.23;;;8.60;99.90;;;;;;5075719;28;20131;-74
2022/06/04 03:17:11;;;;;;;33.45;15.18;;;8.60;99.90;;;;;;5075616;28;20115;-74
2022/06/04 03:19:37;;;;;;;24.83;13.23;;;8.60;99.90;;;;;;5075628;28;20040;-73
2022/06/04 03:22:03;;;;;;;33.42;14.38;;;8.60;99.90;;;;;;5075319;28;20040;-73
2022/06/04 03:24:29;;;;;;;34.20;14.75;;;8.60;99.90;;;;;;5075265;28;20115;-73
2022/06/04 03:26:55;;;;;;;24.27;13.23;;;8.60;99.90;;;;;;5074803;28;20403;-73
2022/06/04 03:29:21;;;;;;;24.92;13.20;;;8.60;99.90;;;;;;5075401;28;20473;-74
2022/06/04 03:31:47;;;;;;;22.17;12.45;;;8.60;99.90;;;;;;5075335;28;20050;-74
2022/06/04 03:34:13;;;;;;;24.75;13.65;;;8.60;99.90;;;;;;5075262;28;20040;-74
2022/06/04 03:36:40;;;;;;;27.23;12.98;;;8.60;99.90;;;;;;5075026;28;20041;-74
2022/06/04 03:39:08;;;;;;;23.27;11.35;;;8.60;99.90;;;;;;5075276;28;20040;-74
2022/06/04 03:41:34;;;;;;;28.13;12.77;;;8.70;99.90;;;;;;5075002;28;20141;-73
2022/06/04 03:44:00;;;;;;;22.48;12.57;;;8.80;99.90;;;;;;5074924;28;20043;-73
2022/06/04 03:46:26;;;;;;;28.20;12.43;;;8.80;99.90;;;;;;5075181;28;20045;-73
2022/06/04 03:48:59;;;;;;;30.58;13.18;;;8.90;99.90;;;;;;5074882;28;20129;-74
2022/06/04 03:51:27;;;;;;;23.63;12.10;;;9.30;99.90;;;;;;5074592;28;20041;-73
2022/06/04 03:53:53;;;;;;;30.15;12.63;;;8.90;99.90;;;;;;5074632;28;20045;-74
2022/06/04 03:56:19;;;;;;;25.10;12.30;;;8.90;99.90;;;;;;5056823;28;20047;-73
2022/06/04 03:58:44;;;;;;;26.00;12.85;;;8.90;99.90;;;;;;5074671;28;20064;-73
2022/06/04 04:01:25;;;;;;;23.98;10.82;;;8.90;99.90;;;;;;5074869;28;20094;-73
2022/06/04 04:03:50;;;;;;;24.55;11.13;;;9.00;99.90;;;;;;5074820;28;20040;-74
2022/06/04 04:06:25;;;;;;;18.65;11.38;;;9.00;99.90;;;;;;5074447;28;20111;-74
2022/06/04 04:08:52;;;;;;;24.40;10.50;;;9.00;99.90;;;;;;5074665;28;20048;-74
2022/06/04 04:11:20;;;;;;;22.38;10.70;;;9.00;99.90;;;;;;5074380;28;20500;-74
2022/06/04 04:13:46;;;;;;;18.05;10.48;;;9.00;99.90;;;;;;5074451;28;20080;-74
2022/06/04 04:16:13;;;;;;;18.30;9.13;;;9.00;99.90;;;;;;5074682;28;20447;-74
2022/06/04 04:18:39;;;;;;;23.13;10.10;;;9.10;99.90;;;;;;5074249;28;20046;-74
2022/06/04 04:21:14;;;;;;;18.92;9.88;;;9.10;99.90;;;;;;5074041;28;20048;-74
2022/06/04 04:23:40;;;;;;;22.58;10.50;;;9.20;99.90;;;;;;5074044;28;20048;-74
2022/06/04 04:26:08;;;;;;;19.23;9.30;;;9.20;99.90;;;;;;5074273;28;20139;-73
2022/06/04 04:28:34;;;;;;;21.50;9.27;;;9.30;99.90;;;;;;5073936;28;20496;-74
2022/06/04 04:31:00;;;;;;;16.40;9.43;;;9.40;99.90;;;;;;5074211;28;20169;-73
2022/06/04 04:33:28;;;;;;;14.63;8.30;;;9.50;99.90;;;;;;5073820;28;20475;-73
2022/06/04 04:35:54;;;;;;;17.92;8.55;;;9.60;99.90;;;;;;5073996;28;20412;-73
2022/06/04 04:38:21;;;;;;;18.55;8.25;;;9.60;99.90;;;;;;5073850;28;20040;-73
2022/06/04 04:40:48;;;;;;;11.35;7.65;;;9.70;99.90;;;;;;5073864;28;20158;-73
2022/06/04 04:43:14;;;;;;;14.90;6.95;;;9.90;99.90;;;;;;5073960;28;20045;-74
2022/06/04 04:45:43;;;;;;;12.88;5.68;;;10.30;99.90;;;;;;5073568;28;20044;-73
2022/06/04 04:48:09;;;;;;;15.35;5.85;;;10.70;99.90;;;;;;5073757;28;20397;-74
2022/06/04 04:50:38;;;;;;;8.35;4.93;;;11.40;99.90;;;;;;5073639;28;20373;-74
2022/06/04 04:53:09;;;;;;;8.25;4.45;;;12.00;99.90;;;;;;5073553;28;20075;-74
2022/06/04 04:55:34;;;;;;;8.63;4.18;;;12.50;99.90;;;;;;5073751;28;20044;-74
2022/06/04 04:58:01;;;;;;;8.18;3.42;;;12.90;99.90;;;;;;5073359;28;20060;-74
2022/06/04 05:00:27;;;;;;;7.78;3.92;;;13.10;99.90;;;;;;5073340;28;20048;-73
2022/06/04 05:02:53;;;;;;;8.55;3.25;;;13.20;99.90;;;;;;5073472;28;20044;-73
2022/06/04 05:05:19;;;;;;;6.32;3.63;;;13.30;99.90;;;;;;5073377;28;20063;-74
2022/06/04 05:07:45;;;;;;;9.15;3.45;;;13.50;99.90;;;;;;5073262;28;20041;-74
2022/06/04 05:10:12;;;;;;;9.35;3.17;;;13.80;99.90;;;;;;5073276;28;20504;-74
2022/06/04 05:12:38;;;;;;;7.15;3.03;;;14.20;99.90;;;;;;5073184;28;20054;-73
2022/06/04 05:15:04;;;;;;;6.28;3.30;;;14.40;99.90;;;;;;5073019;28;20040;-74
2022/06/04 05:17:30;;;;;;;6.35;3.10;;;14.50;99.90;;;;;;5073087;28;20503;-74
2022/06/04 05:19:56;;;;;;;6.32;2.97;;;14.90;99.90;;;;;;5073039;28;20040;-74
2022/06/04 05:22:22;;;;;;;5.57;3.00;;;15.10;99.90;;;;;;5072922;28;20036;-74
2022/06/04 05:24:47;;;;;;;8.07;3.05;;;15.10;99.90;;;;;;5073073;28;20033;-74
2022/06/04 05:27:13;;;;;;;9.40;3.38;;;15.10;99.90;;;;;;5072961;28;20111;-74
2022/06/04 05:29:39;;;;;;;10.30;3.92;;;15.10;99.90;;;;;;5072804;28;20043;-74
2022/06/04 05:32:06;;;;;;;9.05;3.67;;;15.20;99.90;;;;;;5072964;28;20079;-73
2022/06/04 05:34:32;;;;;;;7.00;3.50;;;15.50;99.90;;;;;;5073203;28;20124;-75
2022/06/04 05:36:59;;;;;;;6.32;3.00;;;15.70;99.90;;;;;;5072995;28;20037;-75
2022/06/04 05:39:25;;;;;;;6.93;3.33;;;15.40;99.90;;;;;;5072984;28;20040;-74
2022/06/04 05:41:52;;;;;;;5.55;2.80;;;15.60;99.90;;;;;;5072669;28;20405;-75
2022/06/04 05:44:18;;;;;;;6.38;3.17;;;15.50;99.90;;;;;;5072524;28;20041;-75
2022/06/04 05:46:44;;;;;;;6.35;3.20;;;15.90;99.90;;;;;;5072972;28;20040;-75
2022/06/04 05:49:11;;;;;;;8.35;3.33;;;15.70;99.90;;;;;;5072458;28;20045;-75
2022/06/04 05:51:40;;;;;;;10.32;3.20;;;16.10;99.90;;;;;;5072700;28;20053;-74
2022/06/04 05:54:06;;;;;;;8.48;3.35;;;16.30;99.90;;;;;;5072676;28;20059;-75
2022/06/04 05:56:35;;;;;;;8.23;3.20;;;16.30;99.90;;;;;;5072700;28;20071;-75
2022/06/04 05:59:04;;;;;;;8.93;2.90;;;16.40;99.90;;;;;;5072688;28;20041;-75
2022/06/04 06:01:34;;;;;;;6.25;3.20;;;16.70;99.90;;;;;;5072401;28;20178;-75
2022/06/04 06:04:00;;;;;;;6.60;3.20;;;16.90;99.90;;;;;;5072248;28;20048;-75
2022/06/04 06:06:29;;;;;;;12.05;3.65;;;17.00;99.90;;;;;;5072688;28;20040;-74
2022/06/04 06:08:57;;;;;;;6.20;2.83;;;16.70;99.90;;;;;;5072734;28;20051;-74
2022/06/04 06:11:24;;;;;;;8.30;3.40;;;17.10;99.90;;;;;;5072700;28;20389;-74
2022/06/04 06:13:50;;;;;;;8.02;2.70;;;17.10;94.40;;;;;;5072730;28;20081;-74
2022/06/04 06:16:22;;;;;;;7.88;2.95;;;17.30;93.20;;;;;;5072967;28;20044;-74
2022/06/04 06:18:48;;;;;;;10.57;2.67;;;17.70;84.50;;;;;;5072903;28;20040;-74
2022/06/04 06:21:18;;;;;;;7.45;2.65;;;18.00;75.90;;;;;;5072750;28;20138;-75
2022/06/04 06:23:44;;;;;;;5.63;2.80;;;17.80;67.00;;;;;;5072621;28;20064;-74
2022/06/04 06:26:16;;;;;;;7.15;2.80;;;17.70;72.30;;;;;;5072822;28;20425;-75
2022/06/04 06:28:43;;;;;;;4.63;2.83;;;17.50;70.90;;;;;;5072720;28;20052;-74
2022/06/04 06:31:11;;;;;;;5.65;2.78;;;17.10;67.60;;;;;;5072669;28;20044;-73
2022/06/04 06:33:37;;;;;;;7.60;3.33;;;16.70;74.50;;;;;;5072418;28;20575;-72
2022/06/04 06:36:07;;;;;;;7.63;3.53;;;16.60;80.80;;;;;;5072525;28;20115;-74
2022/06/04 06:38:33;;;;;;;10.50;3.58;;;16.00;90.00;;;;;;5072494;28;20113;-74
2022/06/04 06:41:00;;;;;;;7.38;3.58;;;16.20;86.50;;;;;;5072747;28;20040;-74
2022/06/04 06:43:35;;;;;;;6.30;3.05;;;16.20;84.60;;;;;;5072398;28;20086;-75
2022/06/04 06:46:08;;;;;;;4.50;2.90;;;16.50;85.40;;;;;;5072491;28;20496;-74
2022/06/04 06:48:36;;;;;;;8.15;3.58;;;17.40;74.00;;;;;;5072450;28;20051;-75
2022/06/04 06:51:06;;;;;;;6.30;2.92;;;18.40;68.00;;;;;;5072137;28;20052;-75
2022/06/04 06:53:33;;;;;;;6.57;3.17;;;19.20;49.50;;;;;;5072582;28;20047;-74
2022/06/04 06:56:08;;;;;;;6.63;3.00;;;19.50;43.20;;;;;;5072351;28;20040;-74
2022/06/04 06:58:34;;;;;;;5.40;2.72;;;19.40;35.40;;;;;;5072229;28;20044;-75
2022/06/04 07:01:00;;;;;;;8.15;2.80;;;20.10;40.80;;;;;;5072378;28;20067;-74
2022/06/04 07:03:29;;;;;;;5.43;3.15;;;20.30;32.40;;;;;;5075761;28;20537;-73
2022/06/04 07:05:55;;;;;;;4.65;2.65;;;19.90;28.90;;;;;;5075944;28;20076;-74
2022/06/04 07:08:24;;;;;;;8.05;3.33;;;19.80;32.70;;;;;;5075847;28;20412;-74
2022/06/04 07:10:49;;;;;;;6.47;2.92;;;19.90;24.90;;;;;;5075826;28;20036;-74
2022/06/04 07:13:15;;;;;;;8.15;3.47;;;20.10;31.70;;;;;;5075686;28;20092;-74
2022/06/04 07:15:43;;;;;;;9.82;3.25;;;19.80;23.40;;;;;;5075769;28;20041;-74
2022/06/04 07:18:12;;;;;;;8.63;3.17;;;19.60;30.90;;;;;;5075641;28;20044;-74
2022/06/04 07:20:38;;;;;;;5.70;3.30;;;20.00;22.50;;;;;;5075865;28;20040;-74
2022/06/04 07:23:04;;;;;;;8.57;3.40;;;20.10;23.60;;;;;;5075483;28;20114;-75
2022/06/04 07:25:30;;;;;;;5.43;3.53;;;20.00;26.50;;;;;;5075664;28;20516;-75
2022/06/04 07:27:56;;;;;;;8.27;3.03;;;20.70;19.20;;;;;;5074999;28;20044;-75
2022/06/04 07:30:21;;;;;;;6.55;3.50;;;20.80;18.80;;;;;;5075411;28;20052;-74
2022/06/04 07:32:47;;;;;;;5.20;3.47;;;20.10;15.20;;;;;;5075331;28;20049;-74
2022/06/04 07:35:13;;;;;;;6.45;3.20;;;20.30;16.70;;;;;;5075342;28;20036;-75
2022/06/04 07:37:38;;;;;;;7.07;2.78;;;19.80;18.50;;;;;;5075199;28;20476;-75
2022/06/04 07:40:04;;;;;;;7.60;3.22;;;20.10;18.40;;;;;;5075245;28;20052;-75
2022/06/04 07:42:30;;;;;;;5.20;3.20;;;19.80;19.30;;;;;;5075078;28;20051;-74
2022/06/04 07:44:57;;;;;;;6.18;3.50;;;19.90;17.10;;;;;;5074794;28;20036;-74
2022/06/04 07:47:24;;;;;;;4.07;2.75;;;19.60;18.50;;;;;;5083301;28;20055;-74
2022/06/04 07:49:49;;;;;;;6.38;3.58;;;19.40;25.70;;;;;;5084928;28;20043;-75
2022/06/04 07:52:16;;;;;;;5.50;3.05;;;20.20;17.80;;;;;;5082608;28;20052;-75
2022/06/04 07:54:42;;;;;;;6.35;3.55;;;20.60;12.70;;;;;;5088670;28;20054;-74
2022/06/04 07:57:07;;;;;;;8.35;3.83;;;20.40;11.80;;;;;;5094290;28;20115;-75
2022/06/04 07:59:33;;;;;;;6.25;3.42;;;21.10;4.60;;;;;;5094322;28;20136;-75
2022/06/04 08:01:58;;;;;;;7.00;3.30;;;20.90;2.40;;;;;;5081989;28;20090;-75
2022/06/04 08:04:24;;;;;;;6.50;3.28;;;20.60;7.80;;;;;;5075994;28;20076;-75
2022/06/04 08:06:50;;;;;;;8.32;3.90;;;20.60;2.10;;;;;;5074381;28;20044;-76
2022/06/04 08:09:15;;;;;;;7.07;3.20;;;20.20;4.90;;;;;;5074063;28;20076;-76
2022/06/04 08:11:41;;;;;;;8.48;4.15;;;20.60;7.80;;;;;;5073587;28;20048;-75
2022/06/04 08:14:13;;;;;;;5.25;3.10;;;21.30;5.40;;;;;;5073668;28;20044;-76
2022/06/04 08:16:42;;;;;;;6.75;3.17;;;21.00;1.00;;;;;;5074142;28;20048;-75
2022/06/04 08:19:08;;;;;;;6.47;3.35;;;21.00;1.00;;;;;;5073925;28;20112;-76
2022/06/04 08:21:36;;;;;;;4.85;2.95;;;21.60;1.00;;;;;;5074138;28;20496;-75
2022/06/04 08:24:02;;;;;;;4.60;3.03;;;21.50;1.00;;;;;;5073620;28;20041;-76
2022/06/04 08:26:28;;;;;;;8.57;3.67;;;21.70;1.00;;;;;;5073660;28;20445;-76
2022/06/04 08:28:53;;;;;;;4.45;3.20;;;21.70;1.00;;;;;;5073343;28;20110;-77
2022/06/04 08:31:19;;;;;;;5.10;2.90;;;21.60;1.00;;;;;;5074830;28;20480;-76
2022/06/04 08:33:45;;;;;;;5.88;3.22;;;21.60;1.00;;;;;;5074057;28;20051;-77
2022/06/04 08:36:13;;;;;;;5.15;3.33;;;21.30;1.00;;;;;;5073565;28;20036;-77
2022/06/04 08:38:39;;;;;;;5.80;3.40;;;21.60;1.00;;;;;;5073567;28;20055;-77
2022/06/04 08:41:17;;;;;;;6.72;3.15;;;21.90;1.00;;;;;;5073453;28;20041;-77
2022/06/04 08:43:57;;;;;;;5.57;3.58;;;21.90;1.00;;;;;;5073202;28;20543;-77
2022/06/04 08:46:34;;;;;;;5.80;3.55;;;22.30;1.00;;;;;;5072176;28;20044;-76
2022/06/04 08:49:13;;;;;;;6.18;3.67;;;22.60;1.00;;;;;;5073570;28;20166;-77
2022/06/04 08:51:39;;;;;;;7.22;3.60;;;22.90;1.00;;;;;;5073044;28;20045;-77
2022/06/04 09:00:03;;;;;;;4.50;2.60;;;22.70;1.00;;;;;;5073002;28;20123;-77
2022/06/04 09:02:58;;;;;;;7.00;3.47;;;22.90;1.00;;;;;;5073189;28;20074;-77
2022/06/04 09:05:47;;;;;;;7.07;3.63;;;23.00;1.00;;;;;;5081413;28;20120;-77
2022/06/04 09:08:20;;;;;;;7.07;3.40;;;23.00;1.00;;;;;;5092018;28;20048;-77
2022/06/04 09:10:57;;;;;;;5.28;3.10;;;23.00;1.00;;;;;;5092071;28;20135;-76
2022/06/04 09:13:40;;;;;;;7.25;3.65;;;22.80;1.00;;;;;;5083868;28;20488;-78
2022/06/04 09:16:21;;;;;;;7.85;3.35;;;22.90;1.00;;;;;;5088838;28;20043;-77
2022/06/04 09:18:49;;;;;;;5.38;2.90;;;22.30;1.00;;;;;;5090328;28;20040;-77
2022/06/04 09:21:15;;;;;;;7.32;3.00;;;23.00;1.00;;;;;;5090366;28;20480;-77
2022/06/04 09:23:46;;;;;;;4.85;2.65;;;23.40;1.00;;;;;;5089534;28;20043;-77
2022/06/04 09:26:15;;;;;;;6.97;2.78;;;23.50;1.00;;;;;;5090142;28;20043;-77
2022/06/04 09:28:55;;;;;;;5.38;2.65;;;23.40;1.00;;;;;;5090116;28;20519;-78
2022/06/04 09:31:40;;;;;;;6.90;3.22;;;22.70;1.00;;;;;;5090067;28;20047;-78
2022/06/04 09:34:19;;;;;;;5.68;2.97;;;22.40;1.00;;;;;;5090258;28;20135;-77
2022/06/04 09:36:46;;;;;;;6.13;2.97;;;22.70;1.00;;;;;;5090569;28;20127;-77
2022/06/04 09:39:28;;;;;;;6.70;2.90;;;22.70;1.00;;;;;;5090201;28;20117;-77
2022/06/04 09:41:55;;;;;;;6.22;2.45;;;22.40;1.00;;;;;;5090076;28;20056;-81
2022/06/04 09:44:22;;;;;;;5.53;2.10;;;22.40;1.00;;;;;;5089965;28;20534;-79
2022/06/04 09:46:52;;;;;;;5.35;2.40;;;22.70;1.00;;;;;;5090226;28;20474;-80
2022/06/04 09:49:29;;;;;;;4.88;2.70;;;23.20;1.00;;;;;;5090149;28;20050;-80
2022/06/04 09:51:55;;;;;;;5.63;2.78;;;22.90;1.00;;;;;;5089589;28;20088;-80
2022/06/04 09:54:28;;;;;;;4.93;2.22;;;22.70;1.00;;;;;;5089646;28;20139;-79
2022/06/04 09:57:04;;;;;;;7.80;2.67;;;22.40;1.00;;;;;;5090189;28;20044;-80
2022/06/04 09:59:33;;;;;;;5.80;2.83;;;22.40;1.00;;;;;;5090037;28;20047;-79
2022/06/04 10:02:18;;;;;;;6.22;2.20;;;22.30;1.00;;;;;;5089619;28;20048;-79
2022/06/04 10:04:49;;;;;;;7.68;2.97;;;22.30;1.00;;;;;;5089648;28;20097;-80
2022/06/04 10:07:18;;;;;;;5.03;2.13;;;22.00;1.00;;;;;;5089933;28;20055;-80
2022/06/04 10:09:56;;;;;;;8.73;2.78;;;22.20;1.00;;;;;;5088716;28;20097;-80
2022/06/04 10:15:33;;;;;;;4.53;2.22;;;21.80;1.00;;;;;;5027098;28;20437;-79
2022/06/04 10:18:04;;;;;;;8.38;2.50;;;22.20;1.00;;;;;;5060721;28;20049;-79
2022/06/04 10:20:30;;;;;;;5.68;2.05;;;22.10;1.00;;;;;;5069702;28;20613;-79
2022/06/04 10:22:57;;;;;;;4.82;2.30;;;22.20;1.00;;;;;;5069630;28;20384;-80
2022/06/04 10:25:43;;;;;;;7.70;2.50;;;22.40;1.00;;;;;;5069575;28;20102;-79
2022/06/04 10:28:21;;;;;;;6.78;3.45;;;22.50;1.00;;;;;;5069280;28;20524;-79
2022/06/04 10:31:02;;;;;;;5.68;2.40;;;22.50;1.00;;;;;;5070031;28;20044;-79
2022/06/04 10:33:50;;;;;;;5.72;2.72;;;22.40;1.00;;;;;;5069366;28;20040;-79
2022/06/04 10:36:34;;;;;;;4.80;2.72;;;22.40;1.00;;;;;;5052054;28;20056;-79
2022/06/04 10:39:03;;;;;;;5.07;2.53;;;22.10;1.00;;;;;;5073403;28;20119;-79
2022/06/04 10:41:36;;;;;;;4.72;2.40;;;21.60;1.00;;;;;;5073044;28;20517;-79
2022/06/04 10:44:36;;;;;;;5.68;2.83;;;21.10;1.00;;;;;;5072792;28;20053;-79
2022/06/04 10:47:23;;;;;;;8.32;3.30;;;20.90;1.00;;;;;;5081953;28;20038;-78
2022/06/04 10:50:29;;;;;;;3.60;2.10;;;21.10;1.00;;;;;;5094806;28;20134;-78
2022/06/04 10:53:27;;;;;;;4.65;2.50;;;21.60;1.00;;;;;;5081860;28;20060;-78
2022/06/04 10:55:59;;;;;;;5.22;2.15;;;22.10;1.00;;;;;;5093229;28;20111;-78
2022/06/04 10:58:36;;;;;;;6.15;2.72;;;22.30;1.00;;;;;;5094825;28;20515;-79
2022/06/04 11:01:34;;;;;;;6.65;2.30;;;22.30;1.00;;;;;;5095336;28;20051;-78
2022/06/04 11:04:24;;;;;;;7.03;2.08;;;22.20;1.00;;;;;;5096067;28;20048;-78
2022/06/04 11:06:54;;;;;;;7.22;2.67;;;22.50;1.00;;;;;;5095369;28;20058;-78
2022/06/04 11:09:30;;;;;;;4.38;2.05;;;22.50;1.00;;;;;;5094962;28;20517;-78
2022/06/04 11:12:04;;;;;;;4.78;2.38;;;22.50;1.00;;;;;;5094172;28;20047;-79
2022/06/04 11:14:48;;;;;;;5.72;2.70;;;22.60;1.00;;;;;;5095507;28;20127;-79
2022/06/04 11:17:27;;;;;;;5.05;2.30;;;23.20;1.00;;;;;;5094840;28;20574;-80
2022/06/04 11:19:59;;;;;;;7.82;3.00;;;23.60;1.00;;;;;;5094141;28;20052;-78
2022/06/04 11:22:32;;;;;;;5.65;2.70;;;23.70;1.00;;;;;;5093398;28;20552;-78
2022/06/04 11:25:14;;;;;;;7.97;2.42;;;24.40;1.00;;;;;;5094642;28;20495;-80
2022/06/04 11:27:53;;;;;;;6.63;2.83;;;24.50;1.00;;;;;;5093066;28;20051;-80
2022/06/04 11:30:34;;;;;;;5.20;2.63;;;24.60;1.00;;;;;;5092910;28;20052;-80
2022/06/04 11:33:00;;;;;;;4.00;2.30;;;25.10;1.00;;;;;;5091828;28;20049;-81
2022/06/04 11:35:44;;;;;;;7.68;3.50;;;25.30;1.00;;;;;;5092083;28;20040;-80
2022/06/04 11:38:36;;;;;;;4.65;1.85;;;25.10;1.00;;;;;;5092380;28;20130;-79
2022/06/04 11:41:30;;;;;;;5.80;2.80;;;24.80;1.00;;;;;;5092648;28;20374;-79
2022/06/04 11:44:18;;;;;;;5.63;2.40;;;24.60;1.00;;;;;;5092207;28;20043;-80
2022/06/04 11:47:04;;;;;;;8.38;3.05;;;25.20;1.00;;;;;;5091409;28;20557;-79
2022/06/04 11:49:38;;;;;;;7.95;2.67;;;24.90;1.00;;;;;;5093175;28;20101;-79
2022/06/04 11:52:33;;;;;;;5.75;3.22;;;25.00;1.00;;;;;;5093311;28;20063;-80
2022/06/04 11:55:23;;;;;;;5.85;2.85;;;25.00;1.00;;;;;;5093958;28;20047;-80
2022/06/04 11:57:58;;;;;;;7.95;2.78;;;24.50;1.00;;;;;;5094404;28;20040;-77
2022/06/04 12:00:30;;;;;;;7.20;2.97;;;24.80;1.00;;;;;;5093798;28;20542;-79
2022/06/04 12:03:19;;;;;;;9.30;2.80;;;25.30;1.00;;;;;;5093152;28;20048;-79
2022/06/04 12:06:18;;;;;;;6.93;2.60;;;25.50;1.00;;;;;;5093087;28;20055;-79
2022/06/04 12:08:54;;;;;;;7.32;3.20;;;25.40;1.00;;;;;;5093186;28;20097;-79
2022/06/04 12:11:38;;;;;;;6.85;3.22;;;24.80;1.00;;;;;;5092868;28;20052;-77
2022/06/04 12:14:34;;;;;;;6.63;3.25;;;24.40;1.00;;;;;;5092407;28;20544;-79
2022/06/04 12:17:03;;;;;;;6.70;2.97;;;24.10;1.00;;;;;;5092833;28;20048;-79
2022/06/04 12:25:40;;;;;;;8.82;3.42;;;25.20;1.00;;;;;;5092564;28;20395;-77
2022/06/04 12:28:28;;;;;;;4.88;2.67;;;25.00;1.00;;;;;;5092281;28;20435;-77
2022/06/04 12:30:55;;;;;;;7.68;2.83;;;24.80;1.00;;;;;;5091641;28;20051;-77
2022/06/04 12:33:32;;;;;;;8.50;2.85;;;24.70;1.00;;;;;;5090801;28;20069;-77
2022/06/04 12:36:32;;;;;;;5.32;2.78;;;25.40;1.00;;;;;;5090556;28;20048;-77
2022/06/04 12:39:23;;;;;;;6.93;2.58;;;25.70;1.00;;;;;;5084235;28;20052;-77
2022/06/04 12:41:53;;;;;;;5.15;3.15;;;25.60;1.00;;;;;;5083655;28;20385;-77
2022/06/04 12:44:29;;;;;;;7.43;2.67;;;25.90;1.00;;;;;;5092836;28;20040;-78
2022/06/04 12:47:08;;;;;;;6.85;3.15;;;25.60;1.00;;;;;;5093360;28;20036;-78
2022/06/04 12:49:38;;;;;;;8.05;2.92;;;25.50;1.00;;;;;;5093152;28;20527;-78
2022/06/04 12:52:22;;;;;;;5.80;2.67;;;25.50;1.00;;;;;;5092726;28;20500;-78
2022/06/04 12:54:52;;;;;;;7.88;3.03;;;26.30;1.00;;;;;;5093666;28;20048;-78
2022/06/04 12:57:41;;;;;;;6.63;2.65;;;26.70;1.00;;;;;;5093432;28;20126;-78
2022/06/04 13:00:30;;;;;;;6.72;3.05;;;26.90;1.00;;;;;;5092673;28;20040;-78
2022/06/04 13:03:04;;;;;;;4.85;2.72;;;26.20;1.00;;;;;;5093233;28;20043;-78
2022/06/04 13:05:30;;;;;;;4.20;1.93;;;25.80;1.00;;;;;;5093031;28;20127;-77
2022/06/04 13:08:02;;;;;;;6.50;2.53;;;26.00;1.00;;;;;;5093030;28;20350;-78
2022/06/04 13:10:40;;;;;;;5.90;2.88;;;25.90;1.00;;;;;;5093633;28;20040;-78
2022/06/04 13:13:34;;;;;;;8.02;2.88;;;25.80;1.00;;;;;;5093009;28;20127;-78
2022/06/04 13:16:04;;;;;;;8.70;3.75;;;25.50;1.00;;;;;;5093241;28;20103;-78
2022/06/04 13:18:39;;;;;;;8.38;3.50;;;25.70;1.00;;;;;;5092944;28;20358;-78
2022/06/04 13:21:13;;;;;;;6.07;2.65;;;25.50;1.00;;;;;;5092969;28;20495;-78
2022/06/04 13:23:44;;;;;;;7.75;3.00;;;25.60;1.00;;;;;;5093068;28;20044;-78
2022/06/04 13:26:44;;;;;;;18.95;3.40;;;25.40;1.00;;;;;;5093116;28;20044;-78
2022/06/04 13:29:29;;;;;;;7.75;2.65;;;24.90;1.00;;;;;;5093016;28;20051;-78
2022/06/04 13:32:09;;;;;;;5.47;2.90;;;24.60;1.00;;;;;;5093064;28;20106;-77
2022/06/04 13:34:35;;;;;;;6.78;2.47;;;25.20;1.00;;;;;;5093020;28;20073;-78
2022/06/04 13:37:04;;;;;;;7.97;2.78;;;24.80;1.00;;;;;;5092656;28;20048;-78
2022/06/04 13:39:31;;;;;;;8.55;2.70;;;24.90;1.00;;;;;;5091622;28;20096;-78